createdAt,value
2022-10-18T00:10:31.702Z,52.90
2022-10-18T00:13:33.492Z,56.50
2022-10-18T00:16:35.161Z,39.70
2022-10-18T00:22:39.851Z,57.00
2022-10-18T00:25:41.525Z,71.80
2022-10-18T00:31:45.335Z,108.30
2022-10-18T00:34:47.054Z,28.20
2022-10-18T00:37:48.677Z,30.80
2022-10-18T00:40:50.403Z,32.70
2022-10-18T00:43:59.704Z,38.20
2022-10-18T00:47:09.668Z,34.60
2022-10-18T00:50:11.798Z,33.00
2022-10-18T00:53:17.208Z,37.00
2022-10-18T00:56:19.926Z,33.00
2022-10-18T00:59:21.785Z,36.60
2022-10-18T01:02:24.096Z,29.70
2022-10-18T01:05:26.086Z,226.20
2022-10-18T01:09:22.477Z,218.60
2022-10-18T01:13:01.854Z,169.60
2022-10-18T01:16:32.092Z,69.00
2022-10-18T01:19:58.680Z,29.10
2022-10-18T01:23:06.425Z,27.20
2022-10-18T01:26:26.368Z,33.80
2022-10-18T01:29:53.390Z,66.40
2022-10-18T01:33:01.081Z,44.80
2022-10-18T01:36:24.464Z,36.40
2022-10-18T01:39:33.831Z,44.10
2022-10-18T01:42:35.469Z,72.70
2022-10-18T01:48:39.219Z,55.40
2022-10-18T01:51:40.880Z,45.70
2022-10-18T01:58:12.240Z,73.30
2022-10-18T02:01:40.950Z,45.10
2022-10-18T02:05:00.293Z,62.40
2022-10-18T02:08:30.751Z,97.80
2022-10-18T02:11:33.255Z,94.00
2022-10-18T02:14:35.050Z,85.90
2022-10-18T02:17:38.393Z,100.90
2022-10-18T02:20:40.367Z,96.40
2022-10-18T02:26:44.017Z,93.20
2022-10-18T02:29:46.101Z,91.20
2022-10-18T02:32:56.144Z,80.60
2022-10-18T02:36:15.789Z,71.20
2022-10-18T02:39:23.492Z,58.30
2022-10-18T02:42:25.430Z,60.50
2022-10-18T02:48:28.821Z,57.10
2022-10-18T02:54:32.003Z,77.40
2022-10-18T03:00:35.978Z,96.90
2022-10-18T03:03:37.578Z,51.10
2022-10-18T03:06:39.394Z,32.40
2022-10-18T03:09:41.209Z,53.00
2022-10-18T03:12:42.862Z,38.50
2022-10-18T03:18:46.238Z,34.90
2022-10-18T03:21:48.147Z,40.60
2022-10-18T03:24:49.867Z,39.80
2022-10-18T03:27:51.654Z,39.60
2022-10-18T03:30:53.934Z,40.90
2022-10-18T03:33:56.122Z,38.30
2022-10-18T03:37:00.954Z,40.90
2022-10-18T03:40:05.968Z,57.90
2022-10-18T03:43:07.892Z,40.70
2022-10-18T03:46:10.045Z,36.30
2022-10-18T03:49:11.737Z,36.30
2022-10-18T03:55:15.169Z,35.70
2022-10-18T03:58:16.962Z,33.20
2022-10-18T04:01:18.832Z,36.20
2022-10-18T04:04:20.639Z,32.90
2022-10-18T04:07:22.329Z,51.80
2022-10-18T04:16:27.852Z,105.70
2022-10-18T04:19:29.602Z,146.60
2022-10-18T04:22:31.310Z,70.00
2022-10-18T04:28:35.686Z,54.90
2022-10-18T04:31:37.475Z,44.60
2022-10-18T04:37:41.062Z,51.00
2022-10-18T04:40:42.891Z,31.90
2022-10-18T04:46:46.242Z,42.60
2022-10-18T04:55:56.491Z,37.10
2022-10-18T05:02:00.218Z,45.70
2022-10-18T05:05:02.044Z,49.70
2022-10-18T05:08:04.794Z,49.60
2022-10-18T05:11:06.923Z,47.30
2022-10-18T05:14:10.566Z,37.90
2022-10-18T05:17:12.510Z,49.50
2022-10-18T05:23:21.062Z,54.40
2022-10-18T05:26:23.163Z,50.20
2022-10-18T05:29:25.121Z,48.60
2022-10-18T05:32:27.159Z,48.50
2022-10-18T05:35:28.913Z,81.80
2022-10-18T05:41:33.822Z,58.30
2022-10-18T05:44:35.847Z,67.20
2022-10-18T05:47:37.536Z,61.30
2022-10-18T05:53:42.715Z,79.90
2022-10-18T05:56:44.432Z,53.40
2022-10-18T05:59:46.298Z,68.00
2022-10-18T06:02:48.251Z,65.70
2022-10-18T06:05:50.057Z,76.40
2022-10-18T06:08:51.930Z,54.60
2022-10-18T06:11:53.776Z,45.30
2022-10-18T06:14:55.571Z,43.90
2022-10-18T06:17:59.278Z,42.60
2022-10-18T06:21:01.118Z,41.00
2022-10-18T06:24:03.036Z,41.00
2022-10-18T06:27:09.094Z,36.70
2022-10-18T06:30:11.401Z,41.40
2022-10-18T06:33:13.083Z,42.00
2022-10-18T06:36:17.720Z,46.30
2022-10-18T06:39:19.419Z,40.80
2022-10-18T06:42:22.693Z,46.90
2022-10-18T06:45:24.744Z,44.30
2022-10-18T06:48:26.509Z,45.90
2022-10-18T06:51:28.291Z,46.90
2022-10-18T06:54:30.031Z,54.00
2022-10-18T06:57:31.982Z,62.00
2022-10-18T07:00:33.750Z,63.40
2022-10-18T07:03:36.011Z,68.80
2022-10-18T07:06:37.811Z,64.30
2022-10-18T07:09:39.726Z,72.10
2022-10-18T07:12:41.767Z,80.10
2022-10-18T07:15:43.911Z,85.10
2022-10-18T07:18:54.568Z,84.10
2022-10-18T07:21:56.332Z,76.80
2022-10-18T07:24:58.061Z,79.90
2022-10-18T07:27:59.891Z,73.50
2022-10-18T07:31:06.233Z,65.10
2022-10-18T07:34:11.289Z,55.30
2022-10-18T07:37:13.142Z,54.90
2022-10-18T07:40:15.045Z,55.70
2022-10-18T07:43:16.778Z,54.10
2022-10-18T07:46:19.830Z,46.30
2022-10-18T07:49:21.591Z,43.40
2022-10-18T07:52:23.378Z,44.10
2022-10-18T07:55:25.351Z,40.70
2022-10-18T07:58:27.398Z,38.90
2022-10-18T08:01:29.264Z,36.10
2022-10-18T08:04:31.107Z,34.70
2022-10-18T08:07:34.026Z,35.70
2022-10-18T08:10:36.632Z,31.80
2022-10-18T08:13:39.119Z,31.40
2022-10-18T08:16:42.027Z,29.70
2022-10-18T08:19:52.887Z,29.20
2022-10-18T08:23:05.879Z,29.30
2022-10-18T08:26:11.756Z,27.70
2022-10-18T08:29:31.641Z,27.20
2022-10-18T08:32:34.029Z,33.30
2022-10-18T08:35:36.240Z,32.20
2022-10-18T08:38:40.043Z,29.80
2022-10-18T08:41:41.813Z,42.90
2022-10-18T08:44:51.438Z,31.90
2022-10-18T08:47:57.167Z,28.60
2022-10-18T08:50:59.607Z,29.60
2022-10-18T08:54:06.833Z,29.40
2022-10-18T08:57:14.148Z,25.40
2022-10-18T09:00:21.565Z,28.00
2022-10-18T09:03:32.998Z,25.40
2022-10-18T09:06:59.592Z,26.80
2022-10-18T09:10:09.039Z,22.80
2022-10-18T09:14:02.582Z,23.20
2022-10-18T09:17:27.203Z,23.60
2022-10-18T09:20:35.599Z,20.90
2022-10-18T09:23:49.686Z,25.20
2022-10-18T09:27:01.763Z,22.40
2022-10-18T09:30:03.574Z,21.40
2022-10-18T09:33:20.857Z,21.90
2022-10-18T09:36:30.703Z,21.70
2022-10-18T09:42:38.345Z,21.70
2022-10-18T09:45:41.649Z,19.30
2022-10-18T09:48:49.540Z,21.30
2022-10-18T09:51:52.958Z,20.30
2022-10-18T09:54:59.383Z,22.20
2022-10-18T09:58:03.096Z,18.40
2022-10-18T10:01:05.119Z,24.00
2022-10-18T10:04:06.900Z,21.50
2022-10-18T10:07:13.242Z,19.20
2022-10-18T10:10:21.022Z,21.00
2022-10-18T10:13:27.904Z,18.70
2022-10-18T10:16:30.192Z,18.80
2022-10-18T10:19:37.970Z,20.30
2022-10-18T10:22:41.756Z,18.00
2022-10-18T10:25:43.672Z,21.00
2022-10-18T10:28:49.021Z,20.50
2022-10-18T10:32:04.579Z,20.60
2022-10-18T10:35:35.268Z,22.10
2022-10-18T10:38:45.976Z,21.50
2022-10-18T10:41:53.330Z,22.80
2022-10-18T10:44:55.646Z,20.40
2022-10-18T10:48:23.306Z,18.40
2022-10-18T10:51:32.487Z,15.00
2022-10-18T10:57:46.908Z,19.50
2022-10-18T11:00:48.720Z,18.60
2022-10-18T11:03:53.280Z,26.20
2022-10-18T11:07:12.333Z,17.20
2022-10-18T11:13:32.756Z,18.80
2022-10-18T11:16:39.594Z,21.80
2022-10-18T11:19:56.727Z,16.90
2022-10-18T11:23:08.615Z,16.80
2022-10-18T11:26:13.581Z,15.90
2022-10-18T11:29:30.512Z,20.70
2022-10-18T11:32:49.861Z,15.50
2022-10-18T11:36:08.345Z,15.50
2022-10-18T11:39:19.046Z,17.50
2022-10-18T11:42:42.476Z,18.20
2022-10-18T11:46:05.699Z,18.10
2022-10-18T11:49:42.938Z,26.50
2022-10-18T11:53:02.455Z,18.70
2022-10-18T11:56:23.432Z,21.00
2022-10-18T11:59:38.573Z,19.90
2022-10-18T12:03:14.714Z,20.20
2022-10-18T12:06:22.971Z,19.60
2022-10-18T12:09:31.432Z,22.10
2022-10-18T12:12:37.376Z,22.80
2022-10-18T12:15:39.873Z,24.40
2022-10-18T12:22:06.367Z,22.20
2022-10-18T12:25:15.835Z,22.60
2022-10-18T12:28:37.383Z,25.70
2022-10-18T12:31:51.337Z,23.90
2022-10-18T12:34:57.181Z,22.30
2022-10-18T12:38:22.464Z,21.10
2022-10-18T12:41:27.217Z,25.00
2022-10-18T12:44:35.844Z,25.90
2022-10-18T12:47:38.132Z,19.10
2022-10-18T12:50:42.870Z,20.20
2022-10-18T12:53:47.042Z,17.10
2022-10-18T12:56:50.971Z,19.00
2022-10-18T12:59:53.899Z,21.20
2022-10-18T13:03:24.983Z,18.40
2022-10-18T13:06:59.430Z,24.40
2022-10-18T13:10:10.714Z,19.40
2022-10-18T13:13:42.672Z,19.80
2022-10-18T13:16:44.790Z,20.00
2022-10-18T13:20:25.013Z,21.70
2022-10-18T13:23:39.695Z,21.40
2022-10-18T13:30:30.867Z,23.20
2022-10-18T13:33:38.939Z,23.90
2022-10-18T13:36:42.339Z,21.90
2022-10-18T13:39:44.188Z,22.20
2022-10-18T13:42:45.959Z,22.80
2022-10-18T13:45:55.599Z,18.70
2022-10-18T13:49:20.343Z,24.40
2022-10-18T13:52:48.193Z,20.60
2022-10-18T13:55:58.764Z,20.50
2022-10-18T13:59:15.103Z,20.00
2022-10-18T14:02:36.347Z,23.90
2022-10-18T14:05:44.625Z,21.10
2022-10-18T14:09:09.519Z,22.00
2022-10-18T14:12:42.071Z,21.60
2022-10-18T14:15:45.650Z,23.20
2022-10-18T14:18:48.154Z,20.90
2022-10-18T14:21:58.395Z,23.80
2022-10-18T14:25:00.343Z,21.90
2022-10-18T14:28:11.431Z,19.70
2022-10-18T14:31:18.662Z,24.30
2022-10-18T14:34:21.054Z,20.90
2022-10-18T14:37:35.792Z,29.60
2022-10-18T14:40:40.147Z,41.50
2022-10-18T14:43:42.946Z,48.00
2022-10-18T14:46:45.605Z,55.10
2022-10-18T14:49:48.318Z,43.00
2022-10-18T14:52:50.162Z,31.20
2022-10-18T14:55:56.203Z,27.50
2022-10-18T14:59:00.758Z,22.60
2022-10-18T15:02:11.549Z,23.20
2022-10-18T15:05:16.415Z,25.20
2022-10-18T15:08:19.463Z,27.00
2022-10-18T15:11:21.533Z,24.80
2022-10-18T15:14:25.370Z,27.00
2022-10-18T15:17:29.864Z,25.20
2022-10-18T15:20:34.295Z,28.10
2022-10-18T15:23:36.592Z,36.90
2022-10-18T15:26:43.971Z,39.40
2022-10-18T15:29:46.091Z,34.10
2022-10-18T15:32:53.274Z,31.50
2022-10-18T15:35:55.210Z,30.80
2022-10-18T15:39:25.972Z,32.40
2022-10-18T15:42:37.861Z,39.60
2022-10-18T15:49:00.207Z,36.60
2022-10-18T15:52:08.088Z,31.50
2022-10-18T15:55:31.963Z,32.60
2022-10-18T15:58:36.465Z,35.90
2022-10-18T16:01:42.784Z,32.10
2022-10-18T16:04:44.660Z,39.00
2022-10-18T16:07:52.457Z,34.20
2022-10-18T16:10:54.670Z,35.20
2022-10-18T16:13:59.567Z,32.70
2022-10-18T16:17:05.267Z,28.90
2022-10-18T16:20:09.822Z,33.40
2022-10-18T16:23:25.839Z,29.60
2022-10-18T16:26:28.513Z,32.10
2022-10-18T16:29:33.198Z,33.30
2022-10-18T16:32:35.126Z,30.00
2022-10-18T16:35:37.178Z,32.20
2022-10-18T16:38:38.935Z,27.50
2022-10-18T16:41:40.917Z,31.50
2022-10-18T16:44:42.661Z,41.40
2022-10-18T16:47:44.995Z,48.00
2022-10-18T16:50:47.299Z,97.90
2022-10-18T16:53:49.428Z,124.00
2022-10-18T16:56:51.331Z,111.70
2022-10-18T16:59:53.027Z,98.00
2022-10-18T17:02:54.764Z,61.80
2022-10-18T17:05:56.966Z,57.50
2022-10-18T17:08:59.389Z,62.60
2022-10-18T17:12:01.149Z,45.10
2022-10-18T17:15:03.193Z,46.60
2022-10-18T17:18:06.217Z,48.80
2022-10-18T17:21:08.239Z,49.10
2022-10-18T17:24:10.432Z,44.00
2022-10-18T17:27:12.204Z,43.70
2022-10-18T17:30:15.300Z,44.00
2022-10-18T17:33:17.253Z,48.60
2022-10-18T17:36:19.023Z,65.90
2022-10-18T17:39:21.298Z,72.00
2022-10-18T17:42:23.136Z,69.20
2022-10-18T17:45:25.117Z,55.80
2022-10-18T17:48:28.483Z,44.90
2022-10-18T17:51:30.338Z,47.00
2022-10-18T17:54:32.159Z,45.60
2022-10-18T17:57:34.182Z,45.00
2022-10-18T18:00:36.324Z,44.00
2022-10-18T18:03:38.401Z,48.70
2022-10-18T18:06:40.189Z,51.80
2022-10-18T18:09:41.939Z,53.90
2022-10-18T18:12:45.610Z,51.50
2022-10-18T18:15:47.904Z,52.30
2022-10-18T18:18:51.730Z,44.90
2022-10-18T18:21:55.254Z,43.90
2022-10-18T18:24:57.134Z,46.90
2022-10-18T18:28:00.648Z,38.20
2022-10-18T18:31:18.385Z,47.50
2022-10-18T18:34:22.351Z,41.20
2022-10-18T18:37:24.378Z,44.30
2022-10-18T18:40:26.093Z,43.80
2022-10-18T18:43:27.835Z,45.10
2022-10-18T18:46:33.269Z,48.00
2022-10-18T18:49:35.678Z,53.00
2022-10-18T18:52:37.674Z,45.50
2022-10-18T18:55:42.168Z,41.10
2022-10-18T18:58:44.697Z,39.10
2022-10-18T19:01:46.516Z,47.10
2022-10-18T19:04:48.455Z,42.50
2022-10-18T19:07:50.183Z,43.50
2022-10-18T19:10:51.947Z,41.10
2022-10-18T19:13:53.911Z,42.00
2022-10-18T19:16:59.266Z,37.30
2022-10-18T19:20:01.357Z,37.10
2022-10-18T19:23:03.256Z,35.30
2022-10-18T19:26:13.161Z,42.30
2022-10-18T19:29:27.315Z,38.10
2022-10-18T19:35:36.511Z,37.30
2022-10-18T19:38:38.337Z,33.40
2022-10-18T19:41:40.097Z,34.00
2022-10-18T19:44:42.245Z,33.80
2022-10-18T19:47:44.059Z,35.10
2022-10-18T19:50:45.902Z,34.90
2022-10-18T19:53:47.611Z,38.20
2022-10-18T19:56:49.365Z,32.30
2022-10-18T19:59:51.086Z,32.00
2022-10-18T20:02:52.858Z,32.10
2022-10-18T20:05:59.016Z,31.40
2022-10-18T20:09:01.466Z,31.40
2022-10-18T20:12:03.583Z,28.70
2022-10-18T20:15:08.926Z,35.50
2022-10-18T20:18:10.775Z,32.90
2022-10-18T20:21:14.995Z,29.30
2022-10-18T20:24:16.842Z,33.40
2022-10-18T20:27:18.548Z,30.00
2022-10-18T20:30:22.964Z,30.80
2022-10-18T20:33:24.896Z,30.90
2022-10-18T20:36:27.728Z,31.90
2022-10-18T20:39:31.063Z,37.50
2022-10-18T20:42:33.025Z,33.20
2022-10-18T20:45:34.787Z,31.30
2022-10-18T20:48:37.050Z,24.00
2022-10-18T20:51:38.992Z,20.60
2022-10-18T20:54:40.718Z,19.50
2022-10-18T20:57:42.869Z,13.30
2022-10-18T21:00:45.210Z,11.40
2022-10-18T21:03:48.269Z,10.30
2022-10-18T21:06:49.973Z,8.60
2022-10-18T21:09:51.876Z,11.70
2022-10-18T21:12:53.836Z,8.70
2022-10-18T21:15:56.813Z,8.60
2022-10-18T21:19:06.748Z,9.40
2022-10-18T21:22:08.493Z,8.70
2022-10-18T21:25:10.663Z,5.50
2022-10-18T21:28:12.734Z,7.30
2022-10-18T21:31:23.771Z,7.30
2022-10-18T21:34:26.244Z,7.10
2022-10-18T21:37:28.074Z,8.40
2022-10-18T21:40:29.977Z,7.20
2022-10-18T21:43:31.736Z,13.40
2022-10-18T21:46:33.609Z,10.70
2022-10-18T21:49:35.512Z,7.60
2022-10-18T21:52:38.312Z,7.30
2022-10-18T21:55:40.018Z,11.80
2022-10-18T21:58:42.740Z,12.50
2022-10-18T22:01:45.845Z,7.20
2022-10-18T22:04:49.694Z,12.00
2022-10-18T22:07:51.751Z,7.50
2022-10-18T22:10:53.615Z,8.20
2022-10-18T22:13:55.873Z,8.10
2022-10-18T22:16:57.686Z,5.20
2022-10-18T22:19:59.545Z,5.40
2022-10-18T22:23:01.342Z,7.60
2022-10-18T22:26:09.161Z,8.20
2022-10-18T22:29:12.541Z,6.30
2022-10-18T22:32:14.255Z,5.90
2022-10-18T22:35:16.175Z,7.20
2022-10-18T22:38:18.188Z,9.60
2022-10-18T22:41:20.216Z,7.40
2022-10-18T22:44:22.454Z,8.60
2022-10-18T22:47:25.008Z,11.40
2022-10-18T22:50:26.830Z,6.90
2022-10-18T22:53:28.715Z,9.40
2022-10-18T22:56:30.518Z,8.90
2022-10-18T22:59:32.234Z,13.60
2022-10-18T23:02:34.227Z,8.80
2022-10-18T23:05:56.287Z,11.30
2022-10-18T23:09:13.349Z,10.80
2022-10-18T23:12:15.223Z,11.10
2022-10-18T23:15:17.143Z,13.20
2022-10-18T23:18:19.650Z,12.80
2022-10-18T23:21:24.302Z,15.30
2022-10-18T23:24:26.395Z,14.20
2022-10-18T23:27:29.096Z,17.10
2022-10-18T23:30:30.919Z,12.70
2022-10-18T23:33:32.633Z,14.20
2022-10-18T23:36:34.497Z,11.30
2022-10-18T23:39:36.283Z,12.50
2022-10-18T23:42:38.085Z,11.00
2022-10-18T23:45:41.013Z,9.50
2022-10-18T23:48:42.950Z,10.30
2022-10-18T23:51:44.822Z,8.20
2022-10-18T23:54:47.036Z,8.90
2022-10-18T23:57:49.054Z,10.30
